Flight Track Log - Related Links

Times and Time Zones

All times are in EST time to prevent confusion due to time zone crossing. See the AWI4065 flight status page for this flight to view local times or setup timezone preferences in your user account.

Time Position Orientation Groundspeed Altitude Reporting Facility
EST Latitude Longitude Course Direction KTS MPH feet Rate Location/Type
Fri 01:29:25 PM 38.8814 -77.0664 169° South 166 191 2,000  Level Washington Center
Fri 01:30:39 PM 38.9333 -77.1167 323° Northwest 207 238 6,300 2,955 Climbing Potomac TRACON
Fri 01:31:00 PM 38.5947 -77.1782 180° South  Level Estimated
Fri 01:31:39 PM 38.9833 -77.1667 322° Northwest 250 288 8,600  Level Potomac TRACON
Fri 01:32:00 PM 38.5089 -77.2248 180° South  Level Estimated
Fri 01:32:39 PM 39.0333 -77.1167 38° Northeast 309 356 10,800  Level Potomac TRACON
Fri 01:33:00 PM 38.4231 -77.2713 180° South  Level Estimated
Fri 01:34:00 PM 38.3372 -77.3177 169° South  Level Estimated
Fri 01:34:23 PM 38.9408 -76.9714 129° Southeast 343 395 13,900  Level Washington Center
Fri 01:35:23 PM 38.8539 -76.9164 154° Southeast 343 395 15,900 1,488 Climbing Washington Center
Fri 01:36:24 PM 38.7628 -76.8561 153° Southeast 350 403 16,900 992 Climbing Washington Center
Fri 01:37:24 PM 38.6633 -76.7933 154° Southeast 371 427 17,900 793 Climbing Washington Center
Fri 01:38:25 PM 38.5556 -76.7333 156° South 402 463 18,500 992 Climbing Washington Center
Fri 01:39:25 PM 38.4411 -76.7131 172° South 413 475 19,900 1,322 Climbing Washington Center
Fri 01:40:23 PM 38.3392 -76.6983 174° South 419 482 21,100 1,261 Climbing Washington Center
Fri 01:41:24 PM 38.2247 -76.6781 172° South 419 482 22,400 1,082 Climbing Washington Center
Fri 01:42:25 PM 38.1100 -76.6631 174° South 419 482 23,300 893 Climbing Washington Center
Fri 01:43:25 PM 37.9933 -76.6483 174° South 425 489 24,200 915 Climbing Washington Center
Fri 01:44:23 PM 37.8786 -76.6572 183° South 419 482 25,100 908 Climbing Washington Center
Fri 01:45:24 PM 37.7658 -76.6714 186° South 419 482 26,000 443 Climbing Washington Center
Fri 01:46:25 PM 37.6511 -76.6856 186° South 419 482 26,000  Level Washington Center
Fri 01:47:23 PM 37.5425 -76.6972 185° South 409 471 26,000  Level Washington Center
Fri 01:48:24 PM 37.4339 -76.7164 188° South 404 465 26,000  Level Washington Center
Fri 01:49:25 PM 37.3353 -76.7594 199° South 387 445 26,000  Level Washington Center
Fri 01:50:25 PM 37.2286 -76.8022 198° South 376 433 26,000  Level Washington Center
Fri 01:51:23 PM 37.1342 -76.8450 200° South 371 427 26,000  Level Washington Center
Fri 01:52:24 PM 37.0542 -76.9089 213° Southwest 350 403 26,000  Level Washington Center
Fri 01:53:25 PM 36.9742 -76.9722 212° Southwest 350 403 26,000  Level Washington Center
Fri 01:54:23 PM 36.8944 -77.0333 212° Southwest 345 397 26,000  Level Washington Center
Fri 01:55:24 PM 36.8142 -77.0967 212° Southwest 345 397 26,000  Level Washington Center
Fri 01:56:25 PM 36.7364 -77.1572 212° Southwest 345 397 26,000  Level Washington Center
Fri 01:57:25 PM 36.6542 -77.2178 211° Southwest 345 397 26,000  Level Washington Center
Fri 01:58:23 PM 36.5697 -77.2808 211° Southwest 345 397 26,000  Level Washington Center
Fri 01:59:23 PM 36.4875 -77.3461 213° Southwest 350 403 26,000  Level Washington Center
Fri 02:00:23 PM 36.4053 -77.4089 212° Southwest 350 403 26,000  Level Washington Center
Fri 02:01:24 PM 36.3208 -77.4714 211° Southwest 355 409 26,000  Level Washington Center
Fri 02:02:25 PM 36.2469 -77.5289 212° Southwest 355 409 26,000  Level Washington Center
Fri 02:03:23 PM 36.1622 -77.5936 212° Southwest 355 409 26,000  Level Washington Center
Fri 02:04:24 PM 36.0778 -77.6558 211° Southwest 355 409 26,000  Level Washington Center
Fri 02:05:25 PM 35.9933 -77.7178 211° Southwest 355 409 26,000  Level Washington Center
Fri 02:06:23 PM 35.9108 -77.7794 211° Southwest 355 409 26,000  Level Washington Center
Fri 02:07:24 PM 35.8261 -77.8439 212° Southwest 355 409 26,000  Level Washington Center
Fri 02:08:24 PM 35.7436 -77.9028 210° Southwest 355 409 26,000  Level Washington Center
Fri 02:09:25 PM 35.6611 -77.9669 212° Southwest 355 409 26,000  Level Washington Center
Fri 02:10:23 PM 35.5764 -78.0258 209° Southwest 355 409 26,000  Level Washington Center
Fri 02:11:24 PM 35.4917 -78.0894 211° Southwest 355 409 26,000  Level Washington Center
Fri 02:12:25 PM 35.4089 -78.1481 210° Southwest 349 402 26,000  Level Washington Center
Fri 02:13:25 PM 35.3261 -78.2117 212° Southwest 349 402 26,000  Level Washington Center
Fri 02:14:25 PM 35.2456 -78.2753 213° Southwest 349 402 26,000  Level Washington Center
Fri 02:15:23 PM 35.1628 -78.3383 212° Southwest 354 407 26,000  Level Washington Center
Fri 02:16:24 PM 35.0797 -78.4017 212° Southwest 354 407 26,000  Level Washington Center
Fri 02:18:18 PM 34.9144 -78.5308 213° Southwest 348 400 26,000  Level Jacksonville Center
Fri 02:19:18 PM 34.8311 -78.5931 212° Southwest 353 406 26,000  Level Jacksonville Center
Fri 02:20:18 PM 34.7478 -78.6556 212° Southwest 353 406 26,000  Level Jacksonville Center
Fri 02:21:18 PM 34.6664 -78.7150 211° Southwest 353 406 26,000  Level Jacksonville Center
Fri 02:22:18 PM 34.5850 -78.7769 212° Southwest 353 406 26,000  Level Jacksonville Center
Fri 02:23:18 PM 34.5036 -78.8389 212° Southwest 353 406 26,000  Level Jacksonville Center
Fri 02:24:18 PM 34.4222 -78.9081 215° Southwest 358 412 26,000 -450 Level Jacksonville Center
Fri 02:25:18 PM 34.3322 -78.9575 204° Southwest 353 406 25,100 -1,000 Descending Jacksonville Center
Fri 02:26:18 PM 34.2397 -79.0069 204° Southwest 363 418 24,000 -1,300 Descending Jacksonville Center
Fri 02:27:18 PM 34.1433 -79.0564 203° Southwest 370 426 22,500 -1,500 Descending Jacksonville Center
Fri 02:28:18 PM 34.0569 -79.1003 203° Southwest 365 420 21,000 -1,500 Descending Jacksonville Center
Fri 02:29:18 PM 33.9728 -79.1439 203° Southwest 352 405 19,500 -1,500 Descending Jacksonville Center
Fri 02:30:18 PM 33.8842 -79.1878 202° Southwest 346 398 18,000 -1,250 Descending Jacksonville Center
Fri 02:31:18 PM 33.7981 -79.2339 204° Southwest 346 398 17,000 -1,250 Descending Jacksonville Center
Fri 02:32:18 PM 33.7161 -79.2922 211° Southwest 346 398 15,500 -1,500 Descending Jacksonville Center
Fri 02:33:18 PM 33.6406 -79.3475 211° Southwest 336 387 14,000 -1,500 Descending Jacksonville Center
Fri 02:34:18 PM 33.5628 -79.4056 212° Southwest 331 381 12,500 -1,500 Descending Jacksonville Center
Fri 02:35:18 PM 33.4853 -79.4633 212° Southwest 331 381 11,000 -750 Descending Jacksonville Center
Fri 02:36:18 PM 33.4117 -79.5211 213° Southwest 326 375 11,000 -50 Level Jacksonville Center
Fri 02:37:18 PM 33.3339 -79.5786 212° Southwest 326 375 10,900 -50 Descending Jacksonville Center
Fri 02:38:18 PM 33.2561 -79.6361 212° Southwest 326 375 10,900 50 Level Jacksonville Center
Fri 02:39:18 PM 33.1761 -79.6961 212° Southwest 331 381 11,000 -100 Climbing Jacksonville Center
Fri 02:40:18 PM 33.1064 -79.7433 210° Southwest 318 366 10,700 -900 Descending Jacksonville Center
Fri 02:41:18 PM 33.0428 -79.7900 212° Southwest 297 342 9,200 -1,750 Descending Jacksonville Center
Fri 02:42:18 PM 32.9750 -79.8369 210° Southwest 284 327 7,200 -2,200 Descending Jacksonville Center
Fri 02:43:18 PM 32.9136 -79.8836 213° Southwest 278 320 4,800 -2,350 Descending Jacksonville Center
Fri 02:44:18 PM 32.8500 -79.9278 210° Southwest 272 313 2,500 -2,300 Descending Jacksonville Center
Fri 02:46:00 PM 32.8097 -80.0144 344° North  Level FlightAware Approximate
Fri 02:53:00 PM 32.8833 -80.0333 348° North  Level FlightAware Approximate
Fri 02:54:00 PM 32.8986 -80.0405 348° North  Level Estimated
Fri 02:55:00 PM 32.8986 -80.0405 348° North  Level Estimated
Fri 02:56:00 PM 32.8986 -80.0405 348° North  Level Estimated

Login

Don't have an account? Register now (free) for customized features, flight alerts, and more!